KMHT

Manchester Airport

Manchester, New Hampshire, USA
METAR KMHT 121853Z 32011G21KT 10SM FEW048 01/M11 A3004 RMK AO2 SLP191 T00111111
Observed Flight Rules
Dec-12 @ 18:53 UTC (23 minutes ago) Visual Flight Rules
Wind Visibility Clouds
320° at 11 knots
 Gusting to 21 knots
10 miles
  • Few at 4,800' AGL
Temperatures Readings
Current 1°C / 34°F
Dewpoint -11°C / 12°F
Humidity 41%
Altimeter 30.04" Hg
Pressure 1019.1 hPa
Elevation 81
METAR KMHT 121853Z 32011G21KT 10SM FEW048 01/M11 A3004 RMK AO2 SLP191 T00111111
Observed Flight Rules
Dec-12 @ 18:53 UTC
(23 minutes ago)
VFR
Wind Visibility
320° at 11 knots
 Gusting to 21 knots
10 miles
Clouds
  • Few at 4,800' AGL
Temperature Dewpoint
1°C / 34°F -11°C / 12°F
Humidity Altimeter Pressure
41% 30.04" Hg 1019.1 hPa